sensor_id;sensor_type;location;lat;lon;timestamp;temperature;humidity
51655;DHT22;37732;53.106;7.030;2023-04-24T00:00:11;11.10;99.90
51655;DHT22;37732;53.106;7.030;2023-04-24T00:02:43;11.00;99.90
51655;DHT22;37732;53.106;7.030;2023-04-24T00:05:15;10.90;99.90
51655;DHT22;37732;53.106;7.030;2023-04-24T00:07:43;10.80;99.90
51655;DHT22;37732;53.106;7.030;2023-04-24T00:10:10;10.80;99.90
51655;DHT22;37732;53.106;7.030;2023-04-24T00:12:36;10.80;99.90
51655;DHT22;37732;53.106;7.030;2023-04-24T00:15:02;10.70;99.90
51655;DHT22;37732;53.106;7.030;2023-04-24T00:17:28;10.60;99.90
51655;DHT22;37732;53.106;7.030;2023-04-24T00:19:54;10.60;99.90
51655;DHT22;37732;53.106;7.030;2023-04-24T00:22:27;10.50;99.90
51655;DHT22;37732;53.106;7.030;2023-04-24T00:24:54;10.50;99.90
51655;DHT22;37732;53.106;7.030;2023-04-24T00:27:20;10.50;99.90
51655;DHT22;37732;53.106;7.030;2023-04-24T00:29:46;10.50;99.90
51655;DHT22;37732;53.106;7.030;2023-04-24T00:32:12;10.40;99.90
51655;DHT22;37732;53.106;7.030;2023-04-24T00:34:38;10.40;99.90
51655;DHT22;37732;53.106;7.030;2023-04-24T00:37:04;10.40;99.90
51655;DHT22;37732;53.106;7.030;2023-04-24T00:39:31;10.40;99.90
51655;DHT22;37732;53.106;7.030;2023-04-24T00:41:57;10.40;99.90
51655;DHT22;37732;53.106;7.030;2023-04-24T00:44:22;10.40;99.90
51655;DHT22;37732;53.106;7.030;2023-04-24T00:46:49;10.40;99.90
51655;DHT22;37732;53.106;7.030;2023-04-24T00:49:20;10.40;99.90
51655;DHT22;37732;53.106;7.030;2023-04-24T00:51:46;10.30;99.90
51655;DHT22;37732;53.106;7.030;2023-04-24T00:54:13;10.30;99.90
51655;DHT22;37732;53.106;7.030;2023-04-24T00:56:40;10.30;99.90
51655;DHT22;37732;53.106;7.030;2023-04-24T00:59:06;10.30;99.90
51655;DHT22;37732;53.106;7.030;2023-04-24T01:01:32;10.30;99.90
51655;DHT22;37732;53.106;7.030;2023-04-24T01:06:34;10.30;99.90
51655;DHT22;37732;53.106;7.030;2023-04-24T01:09:00;10.30;99.90
51655;DHT22;37732;53.106;7.030;2023-04-24T01:11:26;10.30;99.90
51655;DHT22;37732;53.106;7.030;2023-04-24T01:13:52;10.30;99.90
51655;DHT22;37732;53.106;7.030;2023-04-24T01:16:18;10.20;99.90
51655;DHT22;37732;53.106;7.030;2023-04-24T01:18:46;10.20;99.90
51655;DHT22;37732;53.106;7.030;2023-04-24T01:21:14;10.20;99.90
51655;DHT22;37732;53.106;7.030;2023-04-24T01:23:43;10.20;99.90
51655;DHT22;37732;53.106;7.030;2023-04-24T01:26:10;10.20;99.90
51655;DHT22;37732;53.106;7.030;2023-04-24T01:28:36;10.20;99.90
51655;DHT22;37732;53.106;7.030;2023-04-24T01:31:02;10.10;99.90
51655;DHT22;37732;53.106;7.030;2023-04-24T01:33:28;10.10;99.90
51655;DHT22;37732;53.106;7.030;2023-04-24T01:35:54;10.10;99.90
51655;DHT22;37732;53.106;7.030;2023-04-24T01:38:20;10.10;99.90
51655;DHT22;37732;53.106;7.030;2023-04-24T01:40:46;10.10;99.90
51655;DHT22;37732;53.106;7.030;2023-04-24T01:43:12;10.00;99.90
51655;DHT22;37732;53.106;7.030;2023-04-24T01:45:38;10.10;99.90
51655;DHT22;37732;53.106;7.030;2023-04-24T01:48:04;10.00;99.90
51655;DHT22;37732;53.106;7.030;2023-04-24T01:50:30;10.00;99.90
51655;DHT22;37732;53.106;7.030;2023-04-24T01:52:56;10.00;99.90
51655;DHT22;37732;53.106;7.030;2023-04-24T01:55:22;10.00;99.90
51655;DHT22;37732;53.106;7.030;2023-04-24T01:57:48;10.00;99.90
51655;DHT22;37732;53.106;7.030;2023-04-24T02:00:15;10.00;99.90
51655;DHT22;37732;53.106;7.030;2023-04-24T02:02:41;9.90;99.90
51655;DHT22;37732;53.106;7.030;2023-04-24T02:05:08;9.90;99.90
51655;DHT22;37732;53.106;7.030;2023-04-24T02:07:34;9.90;99.90
51655;DHT22;37732;53.106;7.030;2023-04-24T02:09:59;9.90;99.90
51655;DHT22;37732;53.106;7.030;2023-04-24T02:12:25;9.90;99.90
51655;DHT22;37732;53.106;7.030;2023-04-24T02:14:51;9.90;99.90
51655;DHT22;37732;53.106;7.030;2023-04-24T02:17:17;9.90;99.90
51655;DHT22;37732;53.106;7.030;2023-04-24T02:19:44;9.80;99.90
51655;DHT22;37732;53.106;7.030;2023-04-24T02:22:10;9.80;99.90
51655;DHT22;37732;53.106;7.030;2023-04-24T02:24:36;9.80;99.90
51655;DHT22;37732;53.106;7.030;2023-04-24T02:27:02;9.70;99.90
51655;DHT22;37732;53.106;7.030;2023-04-24T02:29:28;9.70;99.90
51655;DHT22;37732;53.106;7.030;2023-04-24T02:31:54;9.70;99.90
51655;DHT22;37732;53.106;7.030;2023-04-24T02:34:20;9.70;99.90
51655;DHT22;37732;53.106;7.030;2023-04-24T02:36:46;9.70;99.90
51655;DHT22;37732;53.106;7.030;2023-04-24T02:39:12;9.60;99.90
51655;DHT22;37732;53.106;7.030;2023-04-24T02:41:38;9.60;99.90
51655;DHT22;37732;53.106;7.030;2023-04-24T02:44:04;9.60;99.90
51655;DHT22;37732;53.106;7.030;2023-04-24T02:46:30;9.60;99.90
51655;DHT22;37732;53.106;7.030;2023-04-24T02:48:56;9.60;99.90
51655;DHT22;37732;53.106;7.030;2023-04-24T02:51:21;9.60;99.90
51655;DHT22;37732;53.106;7.030;2023-04-24T02:53:47;9.70;99.90
51655;DHT22;37732;53.106;7.030;2023-04-24T02:56:13;9.60;99.90
51655;DHT22;37732;53.106;7.030;2023-04-24T02:58:39;9.60;99.90
51655;DHT22;37732;53.106;7.030;2023-04-24T03:01:04;9.60;99.90
51655;DHT22;37732;53.106;7.030;2023-04-24T03:03:30;9.60;99.90
51655;DHT22;37732;53.106;7.030;2023-04-24T03:05:56;9.60;99.90
51655;DHT22;37732;53.106;7.030;2023-04-24T03:08:22;9.60;99.90
51655;DHT22;37732;53.106;7.030;2023-04-24T03:10:48;9.60;99.90
51655;DHT22;37732;53.106;7.030;2023-04-24T03:13:15;9.60;99.90
51655;DHT22;37732;53.106;7.030;2023-04-24T03:15:42;9.60;99.90
51655;DHT22;37732;53.106;7.030;2023-04-24T03:18:07;9.60;99.90
51655;DHT22;37732;53.106;7.030;2023-04-24T03:20:33;9.50;99.90
51655;DHT22;37732;53.106;7.030;2023-04-24T03:22:58;9.60;99.90
51655;DHT22;37732;53.106;7.030;2023-04-24T03:25:24;9.60;99.90
51655;DHT22;37732;53.106;7.030;2023-04-24T03:27:50;9.50;99.90
51655;DHT22;37732;53.106;7.030;2023-04-24T03:30:16;9.50;99.90
51655;DHT22;37732;53.106;7.030;2023-04-24T03:32:42;9.60;99.90
51655;DHT22;37732;53.106;7.030;2023-04-24T03:35:09;9.60;99.90
51655;DHT22;37732;53.106;7.030;2023-04-24T03:37:34;9.50;99.90
51655;DHT22;37732;53.106;7.030;2023-04-24T03:40:01;9.60;99.90
51655;DHT22;37732;53.106;7.030;2023-04-24T03:42:27;9.50;99.90
51655;DHT22;37732;53.106;7.030;2023-04-24T03:44:53;9.50;99.90
51655;DHT22;37732;53.106;7.030;2023-04-24T03:47:18;9.50;99.90
51655;DHT22;37732;53.106;7.030;2023-04-24T03:49:45;9.50;99.90
51655;DHT22;37732;53.106;7.030;2023-04-24T03:52:10;9.50;99.90
51655;DHT22;37732;53.106;7.030;2023-04-24T03:54:36;9.50;99.90
51655;DHT22;37732;53.106;7.030;2023-04-24T03:57:02;9.50;99.90
51655;DHT22;37732;53.106;7.030;2023-04-24T03:59:28;9.50;99.90
51655;DHT22;37732;53.106;7.030;2023-04-24T04:01:54;9.50;99.90
51655;DHT22;37732;53.106;7.030;2023-04-24T04:04:20;9.50;99.90
51655;DHT22;37732;53.106;7.030;2023-04-24T04:06:45;9.40;99.90
51655;DHT22;37732;53.106;7.030;2023-04-24T04:09:12;9.40;99.90
51655;DHT22;37732;53.106;7.030;2023-04-24T04:11:37;9.40;99.90
51655;DHT22;37732;53.106;7.030;2023-04-24T04:14:03;9.50;99.90
51655;DHT22;37732;53.106;7.030;2023-04-24T04:16:29;9.40;99.90
51655;DHT22;37732;53.106;7.030;2023-04-24T04:18:55;9.40;99.90
51655;DHT22;37732;53.106;7.030;2023-04-24T04:21:21;9.50;99.90
51655;DHT22;37732;53.106;7.030;2023-04-24T04:23:47;9.40;99.90
51655;DHT22;37732;53.106;7.030;2023-04-24T04:26:13;9.40;99.90
51655;DHT22;37732;53.106;7.030;2023-04-24T04:28:39;9.40;99.90
51655;DHT22;37732;53.106;7.030;2023-04-24T04:31:05;9.40;99.90
51655;DHT22;37732;53.106;7.030;2023-04-24T04:33:33;9.40;99.90
51655;DHT22;37732;53.106;7.030;2023-04-24T04:35:59;9.40;99.90
51655;DHT22;37732;53.106;7.030;2023-04-24T04:38:25;9.40;99.90
51655;DHT22;37732;53.106;7.030;2023-04-24T04:40:52;9.40;99.90
51655;DHT22;37732;53.106;7.030;2023-04-24T04:43:17;9.40;99.90
51655;DHT22;37732;53.106;7.030;2023-04-24T04:45:43;9.40;99.90
51655;DHT22;37732;53.106;7.030;2023-04-24T04:48:10;9.40;99.90
51655;DHT22;37732;53.106;7.030;2023-04-24T04:50:39;9.40;99.90
51655;DHT22;37732;53.106;7.030;2023-04-24T04:53:04;9.40;99.90
51655;DHT22;37732;53.106;7.030;2023-04-24T04:55:31;9.40;99.90
51655;DHT22;37732;53.106;7.030;2023-04-24T04:57:56;9.40;99.90
51655;DHT22;37732;53.106;7.030;2023-04-24T05:00:23;9.40;99.90
51655;DHT22;37732;53.106;7.030;2023-04-24T05:02:51;9.40;99.90
51655;DHT22;37732;53.106;7.030;2023-04-24T05:05:17;9.40;99.90
51655;DHT22;37732;53.106;7.030;2023-04-24T05:07:44;9.40;99.90
51655;DHT22;37732;53.106;7.030;2023-04-24T05:10:10;9.50;99.90
51655;DHT22;37732;53.106;7.030;2023-04-24T05:12:36;9.50;99.90
51655;DHT22;37732;53.106;7.030;2023-04-24T05:15:02;9.50;99.90
51655;DHT22;37732;53.106;7.030;2023-04-24T05:17:28;9.50;99.90
51655;DHT22;37732;53.106;7.030;2023-04-24T05:19:54;9.50;99.90
51655;DHT22;37732;53.106;7.030;2023-04-24T05:22:21;9.50;99.90
51655;DHT22;37732;53.106;7.030;2023-04-24T05:24:47;9.50;99.90
51655;DHT22;37732;53.106;7.030;2023-04-24T05:27:13;9.50;99.90
51655;DHT22;37732;53.106;7.030;2023-04-24T05:29:39;9.40;99.90
51655;DHT22;37732;53.106;7.030;2023-04-24T05:32:05;9.50;99.90
51655;DHT22;37732;53.106;7.030;2023-04-24T05:34:31;9.40;99.90
51655;DHT22;37732;53.106;7.030;2023-04-24T05:36:57;9.50;99.90
51655;DHT22;37732;53.106;7.030;2023-04-24T05:39:23;9.40;99.90
51655;DHT22;37732;53.106;7.030;2023-04-24T05:41:50;9.40;99.90
51655;DHT22;37732;53.106;7.030;2023-04-24T05:44:16;9.40;99.90
51655;DHT22;37732;53.106;7.030;2023-04-24T05:46:42;9.40;99.90
51655;DHT22;37732;53.106;7.030;2023-04-24T05:49:08;9.40;99.90
51655;DHT22;37732;53.106;7.030;2023-04-24T05:51:33;9.30;99.90
51655;DHT22;37732;53.106;7.030;2023-04-24T05:53:59;9.40;99.90
51655;DHT22;37732;53.106;7.030;2023-04-24T05:56:25;9.40;99.90
51655;DHT22;37732;53.106;7.030;2023-04-24T05:58:51;9.40;99.90
51655;DHT22;37732;53.106;7.030;2023-04-24T06:01:17;9.40;99.90
51655;DHT22;37732;53.106;7.030;2023-04-24T06:03:43;9.40;99.90
51655;DHT22;37732;53.106;7.030;2023-04-24T06:06:09;9.40;99.90
51655;DHT22;37732;53.106;7.030;2023-04-24T06:08:35;9.40;99.90
51655;DHT22;37732;53.106;7.030;2023-04-24T06:11:01;9.40;99.90
51655;DHT22;37732;53.106;7.030;2023-04-24T06:13:27;9.40;99.90
51655;DHT22;37732;53.106;7.030;2023-04-24T06:15:53;9.40;99.90
51655;DHT22;37732;53.106;7.030;2023-04-24T06:18:18;9.40;99.90
51655;DHT22;37732;53.106;7.030;2023-04-24T06:20:47;9.40;99.90
51655;DHT22;37732;53.106;7.030;2023-04-24T06:23:12;9.40;99.90
51655;DHT22;37732;53.106;7.030;2023-04-24T06:25:39;9.40;99.90
51655;DHT22;37732;53.106;7.030;2023-04-24T06:28:05;9.40;99.90
51655;DHT22;37732;53.106;7.030;2023-04-24T06:30:31;9.40;99.90
51655;DHT22;37732;53.106;7.030;2023-04-24T06:32:57;9.40;99.90
51655;DHT22;37732;53.106;7.030;2023-04-24T06:35:23;9.40;99.90
51655;DHT22;37732;53.106;7.030;2023-04-24T06:37:48;9.50;99.90
51655;DHT22;37732;53.106;7.030;2023-04-24T06:40:14;9.50;99.90
51655;DHT22;37732;53.106;7.030;2023-04-24T06:42:40;9.50;99.90
51655;DHT22;37732;53.106;7.030;2023-04-24T06:45:06;9.50;99.90
51655;DHT22;37732;53.106;7.030;2023-04-24T06:47:32;9.60;99.90
51655;DHT22;37732;53.106;7.030;2023-04-24T06:49:58;9.60;99.90
51655;DHT22;37732;53.106;7.030;2023-04-24T06:52:24;9.60;99.90
51655;DHT22;37732;53.106;7.030;2023-04-24T06:54:50;9.70;99.90
51655;DHT22;37732;53.106;7.030;2023-04-24T06:57:16;9.70;99.90
51655;DHT22;37732;53.106;7.030;2023-04-24T06:59:42;9.80;99.90
51655;DHT22;37732;53.106;7.030;2023-04-24T07:02:07;9.80;99.90
51655;DHT22;37732;53.106;7.030;2023-04-24T07:04:33;9.80;99.90
51655;DHT22;37732;53.106;7.030;2023-04-24T07:06:59;9.90;99.90
51655;DHT22;37732;53.106;7.030;2023-04-24T07:09:26;9.90;99.90
51655;DHT22;37732;53.106;7.030;2023-04-24T07:11:52;9.90;99.90
51655;DHT22;37732;53.106;7.030;2023-04-24T07:14:19;9.90;99.90
51655;DHT22;37732;53.106;7.030;2023-04-24T07:16:46;9.90;99.90
51655;DHT22;37732;53.106;7.030;2023-04-24T07:19:12;9.90;99.90
51655;DHT22;37732;53.106;7.030;2023-04-24T07:21:38;9.90;99.90
51655;DHT22;37732;53.106;7.030;2023-04-24T07:24:04;9.90;99.90
51655;DHT22;37732;53.106;7.030;2023-04-24T07:26:31;10.00;99.90
51655;DHT22;37732;53.106;7.030;2023-04-24T07:28:57;10.00;99.90
51655;DHT22;37732;53.106;7.030;2023-04-24T07:31:22;10.00;99.90
51655;DHT22;37732;53.106;7.030;2023-04-24T07:33:48;10.00;99.90
51655;DHT22;37732;53.106;7.030;2023-04-24T07:36:14;10.00;99.90
51655;DHT22;37732;53.106;7.030;2023-04-24T07:38:45;10.10;99.90
51655;DHT22;37732;53.106;7.030;2023-04-24T07:41:12;10.10;99.90
51655;DHT22;37732;53.106;7.030;2023-04-24T07:43:38;10.10;99.90
51655;DHT22;37732;53.106;7.030;2023-04-24T07:46:03;10.10;99.90
51655;DHT22;37732;53.106;7.030;2023-04-24T07:48:29;10.20;99.90
51655;DHT22;37732;53.106;7.030;2023-04-24T07:50:55;10.30;99.90
51655;DHT22;37732;53.106;7.030;2023-04-24T07:53:20;10.20;99.90
51655;DHT22;37732;53.106;7.030;2023-04-24T07:55:46;10.30;99.90
51655;DHT22;37732;53.106;7.030;2023-04-24T07:58:12;10.40;99.90
51655;DHT22;37732;53.106;7.030;2023-04-24T08:00:38;10.40;99.90
51655;DHT22;37732;53.106;7.030;2023-04-24T08:03:04;10.50;99.90
51655;DHT22;37732;53.106;7.030;2023-04-24T08:05:29;10.50;99.90
51655;DHT22;37732;53.106;7.030;2023-04-24T08:07:55;10.50;99.90
51655;DHT22;37732;53.106;7.030;2023-04-24T08:10:22;10.60;99.90
51655;DHT22;37732;53.106;7.030;2023-04-24T08:12:48;10.60;99.90
51655;DHT22;37732;53.106;7.030;2023-04-24T08:15:15;10.60;99.90
51655;DHT22;37732;53.106;7.030;2023-04-24T08:17:40;10.60;99.90
51655;DHT22;37732;53.106;7.030;2023-04-24T08:20:07;10.60;99.90
51655;DHT22;37732;53.106;7.030;2023-04-24T08:22:41;10.60;99.90
51655;DHT22;37732;53.106;7.030;2023-04-24T08:25:08;10.50;99.90
51655;DHT22;37732;53.106;7.030;2023-04-24T08:27:34;10.60;99.90
51655;DHT22;37732;53.106;7.030;2023-04-24T08:30:00;10.60;99.90
51655;DHT22;37732;53.106;7.030;2023-04-24T08:32:26;10.60;99.90
51655;DHT22;37732;53.106;7.030;2023-04-24T08:34:58;10.60;99.90
51655;DHT22;37732;53.106;7.030;2023-04-24T08:37:26;10.60;99.90
51655;DHT22;37732;53.106;7.030;2023-04-24T08:39:52;10.60;99.90
51655;DHT22;37732;53.106;7.030;2023-04-24T08:42:19;10.60;99.90
51655;DHT22;37732;53.106;7.030;2023-04-24T08:44:45;10.60;99.90
51655;DHT22;37732;53.106;7.030;2023-04-24T08:47:12;10.60;99.90
51655;DHT22;37732;53.106;7.030;2023-04-24T08:49:38;10.60;99.90
51655;DHT22;37732;53.106;7.030;2023-04-24T08:52:07;10.50;99.90
51655;DHT22;37732;53.106;7.030;2023-04-24T08:54:36;10.50;99.90
51655;DHT22;37732;53.106;7.030;2023-04-24T08:57:03;10.40;99.90
51655;DHT22;37732;53.106;7.030;2023-04-24T08:59:30;10.30;99.90
51655;DHT22;37732;53.106;7.030;2023-04-24T09:01:56;10.20;99.90
51655;DHT22;37732;53.106;7.030;2023-04-24T09:04:24;10.10;99.90
51655;DHT22;37732;53.106;7.030;2023-04-24T09:06:57;10.20;99.90
51655;DHT22;37732;53.106;7.030;2023-04-24T09:09:24;10.10;99.90
51655;DHT22;37732;53.106;7.030;2023-04-24T09:11:51;10.10;99.90
51655;DHT22;37732;53.106;7.030;2023-04-24T09:14:19;10.10;99.90
51655;DHT22;37732;53.106;7.030;2023-04-24T09:16:46;10.10;99.90
51655;DHT22;37732;53.106;7.030;2023-04-24T09:19:12;10.20;99.90
51655;DHT22;37732;53.106;7.030;2023-04-24T09:21:38;10.20;99.90
51655;DHT22;37732;53.106;7.030;2023-04-24T09:24:07;10.10;99.90
51655;DHT22;37732;53.106;7.030;2023-04-24T09:26:35;10.10;99.90
51655;DHT22;37732;53.106;7.030;2023-04-24T09:29:01;10.10;99.90
51655;DHT22;37732;53.106;7.030;2023-04-24T09:31:29;10.10;99.90
51655;DHT22;37732;53.106;7.030;2023-04-24T09:34:00;10.00;99.90
51655;DHT22;37732;53.106;7.030;2023-04-24T09:36:31;10.00;99.90
51655;DHT22;37732;53.106;7.030;2023-04-24T09:39:03;10.00;99.90
51655;DHT22;37732;53.106;7.030;2023-04-24T09:41:30;9.90;99.90
51655;DHT22;37732;53.106;7.030;2023-04-24T09:46:30;9.70;99.90
51655;DHT22;37732;53.106;7.030;2023-04-24T09:49:12;9.60;99.90
51655;DHT22;37732;53.106;7.030;2023-04-24T09:51:38;9.60;99.90
51655;DHT22;37732;53.106;7.030;2023-04-24T09:54:15;9.60;99.90
51655;DHT22;37732;53.106;7.030;2023-04-24T09:56:45;9.60;99.90
51655;DHT22;37732;53.106;7.030;2023-04-24T09:59:16;9.50;99.90
51655;DHT22;37732;53.106;7.030;2023-04-24T10:01:42;9.50;99.90
51655;DHT22;37732;53.106;7.030;2023-04-24T10:04:30;9.40;99.90
51655;DHT22;37732;53.106;7.030;2023-04-24T10:06:56;9.40;99.90
51655;DHT22;37732;53.106;7.030;2023-04-24T10:09:26;9.40;99.90
51655;DHT22;37732;53.106;7.030;2023-04-24T10:11:53;9.40;99.90
51655;DHT22;37732;53.106;7.030;2023-04-24T10:14:23;9.40;99.90
51655;DHT22;37732;53.106;7.030;2023-04-24T10:16:52;9.40;99.90
51655;DHT22;37732;53.106;7.030;2023-04-24T10:19:18;9.40;99.90
51655;DHT22;37732;53.106;7.030;2023-04-24T10:21:45;9.40;99.90
51655;DHT22;37732;53.106;7.030;2023-04-24T10:24:15;9.40;99.90
51655;DHT22;37732;53.106;7.030;2023-04-24T10:26:41;9.40;99.90
51655;DHT22;37732;53.106;7.030;2023-04-24T10:29:08;9.50;99.90
51655;DHT22;37732;53.106;7.030;2023-04-24T10:31:36;9.50;99.90
51655;DHT22;37732;53.106;7.030;2023-04-24T10:34:04;9.50;99.90
51655;DHT22;37732;53.106;7.030;2023-04-24T10:36:31;9.40;99.90
51655;DHT22;37732;53.106;7.030;2023-04-24T10:39:00;9.40;99.90
51655;DHT22;37732;53.106;7.030;2023-04-24T10:41:26;9.40;99.90
51655;DHT22;37732;53.106;7.030;2023-04-24T10:46:30;9.20;99.90
51655;DHT22;37732;53.106;7.030;2023-04-24T10:48:56;9.20;99.90
51655;DHT22;37732;53.106;7.030;2023-04-24T10:51:24;9.10;99.90
51655;DHT22;37732;53.106;7.030;2023-04-24T10:54:28;9.20;99.90
51655;DHT22;37732;53.106;7.030;2023-04-24T11:00:21;9.20;99.90
51655;DHT22;37732;53.106;7.030;2023-04-24T11:02:48;9.20;99.90
51655;DHT22;37732;53.106;7.030;2023-04-24T11:05:16;9.30;99.90
51655;DHT22;37732;53.106;7.030;2023-04-24T11:08:15;9.30;99.90
51655;DHT22;37732;53.106;7.030;2023-04-24T11:10:46;9.40;99.90
51655;DHT22;37732;53.106;7.030;2023-04-24T11:13:21;9.60;99.90
51655;DHT22;37732;53.106;7.030;2023-04-24T11:19:02;9.60;99.90
51655;DHT22;37732;53.106;7.030;2023-04-24T11:21:38;9.70;99.90
51655;DHT22;37732;53.106;7.030;2023-04-24T11:26:51;9.70;99.90
51655;DHT22;37732;53.106;7.030;2023-04-24T11:29:20;9.70;99.90
51655;DHT22;37732;53.106;7.030;2023-04-24T11:31:46;9.80;99.90
51655;DHT22;37732;53.106;7.030;2023-04-24T11:34:18;9.80;99.90
51655;DHT22;37732;53.106;7.030;2023-04-24T11:36:47;9.80;99.90
51655;DHT22;37732;53.106;7.030;2023-04-24T11:39:14;9.80;99.90
51655;DHT22;37732;53.106;7.030;2023-04-24T11:41:40;9.80;99.90
51655;DHT22;37732;53.106;7.030;2023-04-24T11:44:08;9.70;99.90
51655;DHT22;37732;53.106;7.030;2023-04-24T11:46:34;9.70;99.90
51655;DHT22;37732;53.106;7.030;2023-04-24T11:48:59;9.70;99.90
51655;DHT22;37732;53.106;7.030;2023-04-24T11:51:28;9.70;99.90
51655;DHT22;37732;53.106;7.030;2023-04-24T11:53:56;9.70;99.90
51655;DHT22;37732;53.106;7.030;2023-04-24T11:56:24;9.70;99.90
51655;DHT22;37732;53.106;7.030;2023-04-24T11:58:52;9.70;99.90
51655;DHT22;37732;53.106;7.030;2023-04-24T12:01:19;9.70;99.90
51655;DHT22;37732;53.106;7.030;2023-04-24T12:03:50;9.70;99.90
51655;DHT22;37732;53.106;7.030;2023-04-24T12:06:16;9.80;99.90
51655;DHT22;37732;53.106;7.030;2023-04-24T12:08:46;9.90;99.90
51655;DHT22;37732;53.106;7.030;2023-04-24T12:11:15;10.00;99.90
51655;DHT22;37732;53.106;7.030;2023-04-24T12:13:41;10.10;99.90
51655;DHT22;37732;53.106;7.030;2023-04-24T12:16:07;10.10;99.90
51655;DHT22;37732;53.106;7.030;2023-04-24T12:18:33;10.10;99.90
51655;DHT22;37732;53.106;7.030;2023-04-24T12:21:15;10.00;99.90
51655;DHT22;37732;53.106;7.030;2023-04-24T12:23:44;10.00;99.90
51655;DHT22;37732;53.106;7.030;2023-04-24T12:26:17;10.00;99.90
51655;DHT22;37732;53.106;7.030;2023-04-24T12:28:47;10.00;99.90
51655;DHT22;37732;53.106;7.030;2023-04-24T12:31:14;9.90;99.90
51655;DHT22;37732;53.106;7.030;2023-04-24T12:33:40;10.00;99.90
51655;DHT22;37732;53.106;7.030;2023-04-24T12:36:06;10.00;99.90
51655;DHT22;37732;53.106;7.030;2023-04-24T12:38:32;9.90;99.90
51655;DHT22;37732;53.106;7.030;2023-04-24T12:41:09;9.90;99.90
51655;DHT22;37732;53.106;7.030;2023-04-24T12:43:35;9.80;99.90
51655;DHT22;37732;53.106;7.030;2023-04-24T12:46:02;9.80;99.90
51655;DHT22;37732;53.106;7.030;2023-04-24T12:48:29;9.80;99.90
51655;DHT22;37732;53.106;7.030;2023-04-24T12:50:57;9.70;99.90
51655;DHT22;37732;53.106;7.030;2023-04-24T12:53:26;9.70;99.90
51655;DHT22;37732;53.106;7.030;2023-04-24T12:55:52;9.70;99.90
51655;DHT22;37732;53.106;7.030;2023-04-24T12:58:20;9.70;99.90
51655;DHT22;37732;53.106;7.030;2023-04-24T13:00:47;9.70;99.90
51655;DHT22;37732;53.106;7.030;2023-04-24T13:03:13;9.70;99.90
51655;DHT22;37732;53.106;7.030;2023-04-24T13:05:38;9.70;99.90
51655;DHT22;37732;53.106;7.030;2023-04-24T13:08:04;9.80;99.90
51655;DHT22;37732;53.106;7.030;2023-04-24T13:10:30;9.80;99.90
51655;DHT22;37732;53.106;7.030;2023-04-24T13:12:56;9.80;99.90
51655;DHT22;37732;53.106;7.030;2023-04-24T13:15:22;10.00;99.90
51655;DHT22;37732;53.106;7.030;2023-04-24T13:17:48;10.00;99.90
51655;DHT22;37732;53.106;7.030;2023-04-24T13:20:14;10.00;99.90
51655;DHT22;37732;53.106;7.030;2023-04-24T13:22:39;10.10;99.90
51655;DHT22;37732;53.106;7.030;2023-04-24T13:25:06;10.10;99.90
51655;DHT22;37732;53.106;7.030;2023-04-24T13:27:32;10.10;99.90
51655;DHT22;37732;53.106;7.030;2023-04-24T13:29:58;10.20;99.90
51655;DHT22;37732;53.106;7.030;2023-04-24T13:32:24;10.20;99.90
51655;DHT22;37732;53.106;7.030;2023-04-24T13:34:50;10.20;99.90
51655;DHT22;37732;53.106;7.030;2023-04-24T13:37:16;10.20;99.90
51655;DHT22;37732;53.106;7.030;2023-04-24T13:39:42;10.20;99.90
51655;DHT22;37732;53.106;7.030;2023-04-24T13:42:08;10.10;99.90
51655;DHT22;37732;53.106;7.030;2023-04-24T13:44:34;10.10;99.90
51655;DHT22;37732;53.106;7.030;2023-04-24T13:47:00;10.10;99.90
51655;DHT22;37732;53.106;7.030;2023-04-24T13:49:26;10.00;99.90
51655;DHT22;37732;53.106;7.030;2023-04-24T13:51:53;10.00;99.90
51655;DHT22;37732;53.106;7.030;2023-04-24T13:54:19;10.00;99.90
51655;DHT22;37732;53.106;7.030;2023-04-24T13:56:45;9.90;99.90
51655;DHT22;37732;53.106;7.030;2023-04-24T13:59:12;9.90;99.90
51655;DHT22;37732;53.106;7.030;2023-04-24T14:01:38;9.90;99.90
51655;DHT22;37732;53.106;7.030;2023-04-24T14:04:04;9.10;99.90
51655;DHT22;37732;53.106;7.030;2023-04-24T14:06:30;9.90;99.90
51655;DHT22;37732;53.106;7.030;2023-04-24T14:08:57;9.90;99.90
51655;DHT22;37732;53.106;7.030;2023-04-24T14:11:22;9.90;99.90
51655;DHT22;37732;53.106;7.030;2023-04-24T14:13:48;9.90;99.90
51655;DHT22;37732;53.106;7.030;2023-04-24T14:16:14;9.90;99.90
51655;DHT22;37732;53.106;7.030;2023-04-24T14:18:40;9.90;99.90
51655;DHT22;37732;53.106;7.030;2023-04-24T14:21:06;9.90;99.90
51655;DHT22;37732;53.106;7.030;2023-04-24T14:23:32;9.80;99.90
51655;DHT22;37732;53.106;7.030;2023-04-24T14:25:58;9.90;99.90
51655;DHT22;37732;53.106;7.030;2023-04-24T14:28:24;9.90;99.90
51655;DHT22;37732;53.106;7.030;2023-04-24T14:30:50;9.80;99.90
51655;DHT22;37732;53.106;7.030;2023-04-24T14:33:16;9.80;99.90
51655;DHT22;37732;53.106;7.030;2023-04-24T14:35:42;9.80;99.90
51655;DHT22;37732;53.106;7.030;2023-04-24T14:38:08;9.80;99.90
51655;DHT22;37732;53.106;7.030;2023-04-24T14:40:35;9.80;99.90
51655;DHT22;37732;53.106;7.030;2023-04-24T14:43:01;9.70;99.90
51655;DHT22;37732;53.106;7.030;2023-04-24T14:45:26;9.70;99.90
51655;DHT22;37732;53.106;7.030;2023-04-24T14:47:52;9.70;99.90
51655;DHT22;37732;53.106;7.030;2023-04-24T14:50:18;9.60;99.90
51655;DHT22;37732;53.106;7.030;2023-04-24T14:52:44;9.50;99.90
51655;DHT22;37732;53.106;7.030;2023-04-24T14:55:10;9.50;99.90
51655;DHT22;37732;53.106;7.030;2023-04-24T14:57:36;9.40;99.90
51655;DHT22;37732;53.106;7.030;2023-04-24T15:00:03;9.30;99.90
51655;DHT22;37732;53.106;7.030;2023-04-24T15:02:32;9.40;99.90
51655;DHT22;37732;53.106;7.030;2023-04-24T15:04:58;9.40;99.90
51655;DHT22;37732;53.106;7.030;2023-04-24T15:07:24;9.40;99.90
51655;DHT22;37732;53.106;7.030;2023-04-24T15:09:50;9.40;99.90
51655;DHT22;37732;53.106;7.030;2023-04-24T15:12:16;9.30;99.90
51655;DHT22;37732;53.106;7.030;2023-04-24T15:14:42;9.30;99.90
51655;DHT22;37732;53.106;7.030;2023-04-24T15:17:08;9.30;99.90
51655;DHT22;37732;53.106;7.030;2023-04-24T15:19:33;9.50;99.90
51655;DHT22;37732;53.106;7.030;2023-04-24T15:21:59;9.60;99.90
51655;DHT22;37732;53.106;7.030;2023-04-24T15:24:25;9.70;99.90
51655;DHT22;37732;53.106;7.030;2023-04-24T15:26:51;9.70;99.90
51655;DHT22;37732;53.106;7.030;2023-04-24T15:29:17;9.80;99.90
51655;DHT22;37732;53.106;7.030;2023-04-24T15:31:42;9.90;99.90
51655;DHT22;37732;53.106;7.030;2023-04-24T15:34:08;9.90;99.90
51655;DHT22;37732;53.106;7.030;2023-04-24T15:36:34;9.80;99.90
51655;DHT22;37732;53.106;7.030;2023-04-24T15:39:03;9.80;99.90
51655;DHT22;37732;53.106;7.030;2023-04-24T15:41:30;9.80;99.90
51655;DHT22;37732;53.106;7.030;2023-04-24T15:43:57;9.80;99.90
51655;DHT22;37732;53.106;7.030;2023-04-24T15:46:23;9.70;99.90
51655;DHT22;37732;53.106;7.030;2023-04-24T15:48:49;9.70;99.90
51655;DHT22;37732;53.106;7.030;2023-04-24T15:51:15;9.70;99.90
51655;DHT22;37732;53.106;7.030;2023-04-24T15:53:41;9.70;99.90